Terminal Aerodrome Forecast
Issued by NWS Caribou, ME

Home | Current Version | Previous Version | Text Only | Print | Product List | Glossary On
Versions: 1 2 3 4 5 6 7 8 9 10 11 12 13 14 15 16
000
FTUS41 KCAR 281502 AAB
TAFCAR
TAF AMD
KCAR 281502Z 2815/2912 18008KT P6SM VCSH BKN040 OVC060
      TEMPO 2815/2817 BKN020
     FM281800 27012G20KT P6SM OVC030
     FM290000 30010G18KT P6SM BKN035
     FM290900 27008KT P6SM VCSH OVC030=

USA.gov is the U.S. government's official web portal to all federal, state and local government web resources and services.